createdAt,value
2023-06-04T00:00:28.072Z,17.30
2023-06-04T00:02:54.890Z,17.30
2023-06-04T00:05:23.525Z,17.30
2023-06-04T00:07:50.207Z,17.30
2023-06-04T00:10:16.951Z,17.30
2023-06-04T00:12:43.617Z,17.20
2023-06-04T00:15:10.858Z,17.10
2023-06-04T00:17:37.527Z,17.10
2023-06-04T00:20:04.465Z,17.10
2023-06-04T00:22:31.099Z,16.90
2023-06-04T00:24:57.791Z,16.80
2023-06-04T00:27:24.431Z,16.90
2023-06-04T00:29:51.199Z,16.90
2023-06-04T00:32:17.921Z,16.80
2023-06-04T00:34:50.778Z,16.60
2023-06-04T00:37:17.457Z,16.50
2023-06-04T00:39:44.081Z,16.40
2023-06-04T00:42:10.770Z,16.20
2023-06-04T00:44:37.635Z,16.30
2023-06-04T00:47:04.593Z,16.30
2023-06-04T00:49:31.207Z,16.20
2023-06-04T00:51:57.877Z,16.20
2023-06-04T00:54:25.174Z,16.10
2023-06-04T00:56:51.796Z,16.00
2023-06-04T00:59:18.491Z,16.10
2023-06-04T01:01:48.307Z,16.10
2023-06-04T01:04:26.803Z,15.90
2023-06-04T01:06:57.143Z,15.90
2023-06-04T01:09:23.950Z,15.90
2023-06-04T01:11:50.605Z,15.80
2023-06-04T01:14:19.329Z,15.70
2023-06-04T01:17:04.760Z,15.80
2023-06-04T01:20:04.057Z,15.70
2023-06-04T01:22:34.441Z,15.70
2023-06-04T01:25:05.239Z,15.40
2023-06-04T01:27:33.122Z,15.40
2023-06-04T01:30:01.434Z,15.50
2023-06-04T01:32:29.099Z,15.40
2023-06-04T01:34:55.997Z,15.30
2023-06-04T01:37:22.798Z,15.30
2023-06-04T01:39:49.483Z,15.40
2023-06-04T01:42:16.333Z,15.30
2023-06-04T01:44:43.005Z,15.30
2023-06-04T01:47:09.685Z,15.30
2023-06-04T01:49:38.661Z,15.30
2023-06-04T01:52:06.720Z,15.30
2023-06-04T01:54:34.773Z,15.20
2023-06-04T01:57:01.830Z,15.10
2023-06-04T01:59:28.543Z,15.00
2023-06-04T02:01:55.241Z,15.00
2023-06-04T02:04:22.188Z,15.10
2023-06-04T02:06:49.811Z,15.00
2023-06-04T02:09:16.749Z,14.90
2023-06-04T02:11:43.545Z,14.90
2023-06-04T02:14:10.212Z,14.80
2023-06-04T02:16:38.696Z,14.80
2023-06-04T02:19:05.789Z,14.80
2023-06-04T02:21:32.503Z,14.70
2023-06-04T02:23:59.283Z,14.70
2023-06-04T02:26:26.089Z,14.70
2023-06-04T02:28:52.788Z,14.70
2023-06-04T02:31:19.471Z,14.70
2023-06-04T02:33:46.317Z,14.80
2023-06-04T02:36:13.416Z,14.90
2023-06-04T02:38:40.217Z,14.80
2023-06-04T02:41:07.227Z,14.70
2023-06-04T02:43:34.126Z,14.60
2023-06-04T02:46:00.879Z,14.40
2023-06-04T02:48:27.574Z,14.30
2023-06-04T02:50:54.278Z,14.30
2023-06-04T02:53:21.944Z,14.30
2023-06-04T02:55:48.575Z,14.40
2023-06-04T02:58:15.230Z,14.50
2023-06-04T03:00:41.929Z,14.50
2023-06-04T03:03:08.796Z,14.50
2023-06-04T03:05:37.783Z,14.40
2023-06-04T03:08:04.911Z,14.40
2023-06-04T03:10:32.168Z,14.40
2023-06-04T03:12:58.816Z,14.30
2023-06-04T03:15:25.431Z,14.20
2023-06-04T03:17:52.440Z,14.10
2023-06-04T03:20:19.218Z,14.10
2023-06-04T03:22:46.011Z,14.10
2023-06-04T03:25:12.841Z,14.10
2023-06-04T03:27:39.512Z,14.00
2023-06-04T03:30:06.908Z,13.90
2023-06-04T03:32:33.639Z,13.80
2023-06-04T03:35:01.400Z,13.90
2023-06-04T03:37:28.854Z,13.90
2023-06-04T03:39:55.538Z,13.90
2023-06-04T03:42:22.178Z,13.90
2023-06-04T03:44:48.806Z,13.90
2023-06-04T03:47:15.641Z,13.80
2023-06-04T03:49:42.359Z,13.80
2023-06-04T03:52:09.002Z,13.70
2023-06-04T03:54:35.862Z,13.70
2023-06-04T03:57:03.004Z,13.70
2023-06-04T03:59:29.787Z,13.80
2023-06-04T04:01:56.472Z,13.80
2023-06-04T04:04:23.180Z,13.90
2023-06-04T04:06:49.896Z,13.90
2023-06-04T04:09:16.926Z,13.80
2023-06-04T04:11:43.583Z,13.80
2023-06-04T04:14:10.210Z,13.60
2023-06-04T04:16:37.001Z,13.70
2023-06-04T04:19:03.713Z,13.70
2023-06-04T04:21:30.514Z,13.70
2023-06-04T04:23:57.145Z,13.70
2023-06-04T04:26:27.436Z,13.70
2023-06-04T04:28:58.906Z,13.80
2023-06-04T04:31:26.374Z,13.90
2023-06-04T04:33:53.365Z,13.80
2023-06-04T04:36:22.133Z,13.80
2023-06-04T04:38:55.091Z,13.90
2023-06-04T04:41:23.636Z,13.90
2023-06-04T04:43:50.439Z,14.00
2023-06-04T04:46:17.785Z,13.90
2023-06-04T04:48:44.486Z,14.00
2023-06-04T04:51:11.117Z,14.00
2023-06-04T04:53:37.744Z,14.00
2023-06-04T04:56:06.560Z,14.10
2023-06-04T04:58:34.529Z,14.10
2023-06-04T05:01:01.168Z,13.90
2023-06-04T05:03:27.880Z,14.00
2023-06-04T05:05:54.512Z,14.00
2023-06-04T05:08:21.148Z,14.10
2023-06-04T05:10:47.834Z,14.00
2023-06-04T05:13:14.501Z,14.10
2023-06-04T05:15:41.180Z,14.00
2023-06-04T05:18:08.813Z,13.90
2023-06-04T05:20:39.101Z,13.90
2023-06-04T05:23:06.129Z,14.00
2023-06-04T05:25:32.845Z,14.00
2023-06-04T05:27:59.560Z,14.10
2023-06-04T05:30:26.919Z,14.20
2023-06-04T05:32:54.468Z,14.20
2023-06-04T05:35:21.485Z,14.10
2023-06-04T05:37:55.326Z,14.20
2023-06-04T05:40:22.392Z,14.40
2023-06-04T05:42:49.701Z,14.50
2023-06-04T05:45:16.376Z,14.50
2023-06-04T05:47:43.051Z,14.60
2023-06-04T05:50:10.864Z,14.60
2023-06-04T05:52:37.998Z,14.70
2023-06-04T05:55:08.375Z,14.50
2023-06-04T05:57:35.096Z,14.60
2023-06-04T06:00:02.085Z,14.70
2023-06-04T06:02:28.946Z,15.00
2023-06-04T06:04:55.749Z,15.00
2023-06-04T06:07:22.494Z,15.20
2023-06-04T06:09:49.159Z,15.20
2023-06-04T06:12:15.807Z,15.10
2023-06-04T06:14:42.681Z,15.30
2023-06-04T06:17:09.389Z,15.20
2023-06-04T06:19:38.487Z,15.30
2023-06-04T06:22:05.568Z,15.20
2023-06-04T06:24:32.191Z,15.20
2023-06-04T06:26:58.968Z,15.20
2023-06-04T06:29:26.177Z,15.40
2023-06-04T06:31:52.907Z,15.40
2023-06-04T06:34:19.556Z,15.50
2023-06-04T06:36:46.248Z,15.50
2023-06-04T06:39:13.139Z,15.60
2023-06-04T06:41:40.558Z,15.70
2023-06-04T06:44:07.260Z,16.00
2023-06-04T06:46:34.188Z,16.00
2023-06-04T06:49:00.878Z,16.10
2023-06-04T06:51:27.654Z,16.10
2023-06-04T06:53:55.568Z,16.10
2023-06-04T06:56:23.042Z,16.30
2023-06-04T06:58:49.637Z,16.60
2023-06-04T07:01:16.528Z,16.70
2023-06-04T07:03:43.231Z,16.70
2023-06-04T07:06:10.170Z,16.60
2023-06-04T07:08:36.946Z,16.60
2023-06-04T07:11:04.669Z,16.60
2023-06-04T07:13:33.449Z,16.60
2023-06-04T07:16:00.364Z,16.60
2023-06-04T07:18:27.203Z,16.80
2023-06-04T07:20:56.268Z,17.00
2023-06-04T07:23:24.268Z,17.20
2023-06-04T07:25:51.050Z,17.20
2023-06-04T07:28:17.837Z,17.10
2023-06-04T07:30:46.799Z,17.00
2023-06-04T07:33:13.526Z,17.10
2023-06-04T07:35:40.288Z,17.20
2023-06-04T07:38:06.922Z,17.30
2023-06-04T07:40:33.630Z,17.30
2023-06-04T07:43:00.296Z,17.30
2023-06-04T07:45:28.282Z,17.40
2023-06-04T07:47:56.648Z,17.50
2023-06-04T07:50:23.409Z,17.50
2023-06-04T07:52:50.119Z,17.50
2023-06-04T07:55:17.005Z,17.60
2023-06-04T07:57:43.706Z,17.80
2023-06-04T08:00:12.657Z,17.90
2023-06-04T08:02:39.420Z,18.10
2023-06-04T08:05:06.457Z,18.10
2023-06-04T08:07:33.383Z,18.10
2023-06-04T08:09:59.994Z,18.00
2023-06-04T08:12:26.808Z,18.10
2023-06-04T08:14:57.652Z,18.20
2023-06-04T08:17:24.520Z,18.30
2023-06-04T08:19:51.245Z,18.40
2023-06-04T08:22:17.964Z,18.30
2023-06-04T08:24:44.735Z,18.30
2023-06-04T08:27:11.404Z,18.40
2023-06-04T08:29:38.237Z,18.70
2023-06-04T08:32:05.410Z,18.80
2023-06-04T08:34:32.106Z,18.80
2023-06-04T08:36:58.718Z,18.90
2023-06-04T08:39:25.946Z,18.90
2023-06-04T08:41:55.843Z,18.90
2023-06-04T08:44:22.574Z,19.00
2023-06-04T08:46:55.928Z,19.20
2023-06-04T08:49:23.377Z,19.30
2023-06-04T08:51:50.283Z,19.40
2023-06-04T08:54:16.940Z,19.50
2023-06-04T08:56:45.084Z,19.80
2023-06-04T08:59:12.138Z,19.60
2023-06-04T09:01:39.282Z,19.80
2023-06-04T09:04:09.406Z,19.80
2023-06-04T09:06:38.653Z,19.90
2023-06-04T09:09:08.263Z,19.90
2023-06-04T09:11:38.814Z,19.90
2023-06-04T09:14:09.472Z,19.80
2023-06-04T09:16:46.830Z,20.00
2023-06-04T09:19:13.632Z,20.20
2023-06-04T09:21:53.469Z,20.20
2023-06-04T09:24:22.103Z,20.10
2023-06-04T09:26:50.223Z,20.20
2023-06-04T09:29:17.557Z,20.10
2023-06-04T09:31:59.644Z,20.20
2023-06-04T09:34:30.147Z,20.20
2023-06-04T09:36:57.565Z,20.40
2023-06-04T09:39:24.515Z,20.30
2023-06-04T09:42:04.176Z,20.40
2023-06-04T09:44:31.471Z,20.50
2023-06-04T09:46:59.557Z,20.40
2023-06-04T09:49:26.937Z,20.40
2023-06-04T09:51:53.712Z,20.50
2023-06-04T09:54:20.446Z,20.50
2023-06-04T09:56:47.126Z,20.60
2023-06-04T09:59:15.412Z,20.70
2023-06-04T10:01:42.543Z,20.60
2023-06-04T10:04:12.686Z,20.60
2023-06-04T10:06:40.508Z,20.80
2023-06-04T10:09:11.290Z,20.80
2023-06-04T10:12:00.147Z,20.80
2023-06-04T10:14:33.345Z,21.00
2023-06-04T10:17:00.831Z,20.90
2023-06-04T10:19:28.857Z,20.90
2023-06-04T10:21:55.835Z,21.10
2023-06-04T10:24:24.604Z,21.10
2023-06-04T10:26:52.266Z,21.20
2023-06-04T10:29:19.210Z,21.20
2023-06-04T10:31:46.323Z,21.20
2023-06-04T10:34:14.240Z,21.30
2023-06-04T10:36:47.042Z,21.40
2023-06-04T10:39:14.246Z,21.30
2023-06-04T10:41:41.169Z,21.30
2023-06-04T10:44:08.150Z,21.30
2023-06-04T10:46:42.418Z,21.40
2023-06-04T10:49:12.807Z,21.40
2023-06-04T10:51:39.534Z,21.50
2023-06-04T10:54:06.366Z,21.50
2023-06-04T10:56:36.145Z,21.60
2023-06-04T10:59:15.165Z,21.60
2023-06-04T11:01:41.994Z,21.70
2023-06-04T11:04:19.810Z,21.70
2023-06-04T11:06:46.842Z,21.70
2023-06-04T11:09:19.850Z,21.80
2023-06-04T11:12:00.565Z,21.90
2023-06-04T11:14:27.388Z,21.90
2023-06-04T11:16:54.290Z,21.80
2023-06-04T11:19:21.513Z,21.80
2023-06-04T11:21:49.249Z,21.90
2023-06-04T11:24:17.439Z,22.00
2023-06-04T11:26:53.503Z,22.00
2023-06-04T11:29:23.737Z,22.10
2023-06-04T11:31:50.456Z,22.00
2023-06-04T11:34:31.001Z,22.10
2023-06-04T11:37:08.306Z,22.20
2023-06-04T11:39:36.715Z,22.20
2023-06-04T11:42:07.107Z,22.30
2023-06-04T11:44:34.564Z,22.30
2023-06-04T11:47:01.335Z,22.30
2023-06-04T11:49:29.073Z,22.40
2023-06-04T11:51:55.890Z,22.40
2023-06-04T11:54:23.300Z,22.50
2023-06-04T11:56:51.697Z,22.60
2023-06-04T11:59:19.632Z,22.70
2023-06-04T12:01:47.944Z,22.80
2023-06-04T12:04:15.286Z,22.90
2023-06-04T12:07:05.669Z,22.90
2023-06-04T12:09:36.716Z,23.00
2023-06-04T12:12:08.493Z,23.10
2023-06-04T12:14:35.642Z,23.20
2023-06-04T12:17:07.107Z,23.30
2023-06-04T12:19:34.649Z,23.50
2023-06-04T12:22:08.615Z,23.40
2023-06-04T12:24:46.888Z,23.60
2023-06-04T12:27:13.587Z,23.60
2023-06-04T12:29:40.810Z,23.70
2023-06-04T12:32:12.301Z,23.80
2023-06-04T12:34:43.496Z,23.80
2023-06-04T12:37:10.170Z,23.80
2023-06-04T12:39:38.055Z,24.10
2023-06-04T12:42:07.838Z,24.20
2023-06-04T12:44:36.295Z,24.40
2023-06-04T12:47:03.994Z,24.30
2023-06-04T12:49:30.749Z,24.50
2023-06-04T12:51:57.485Z,24.30
2023-06-04T12:54:24.248Z,24.60
2023-06-04T12:56:51.422Z,24.60
2023-06-04T12:59:18.152Z,24.70
2023-06-04T13:01:44.883Z,24.90
2023-06-04T13:04:11.805Z,24.80
2023-06-04T13:06:38.740Z,24.80
2023-06-04T13:09:12.542Z,24.80
2023-06-04T13:11:40.903Z,25.20
2023-06-04T13:14:08.437Z,25.40
2023-06-04T13:16:35.555Z,25.40
2023-06-04T13:19:02.493Z,25.50
2023-06-04T13:21:29.196Z,25.60
2023-06-04T13:23:57.153Z,25.60
2023-06-04T13:26:23.963Z,25.90
2023-06-04T13:28:50.888Z,26.00
2023-06-04T13:31:17.640Z,26.10
2023-06-04T13:33:45.229Z,25.90
2023-06-04T13:36:11.861Z,26.10
2023-06-04T13:38:38.656Z,26.50
2023-06-04T13:41:05.332Z,26.60
2023-06-04T13:43:31.987Z,26.70
2023-06-04T13:45:58.702Z,26.50
2023-06-04T13:48:25.398Z,26.60
2023-06-04T13:50:52.134Z,26.80
2023-06-04T13:53:18.919Z,27.00
2023-06-04T13:55:45.847Z,26.70
2023-06-04T13:58:12.717Z,26.70
2023-06-04T14:00:39.409Z,26.50
2023-06-04T14:03:06.531Z,26.80
2023-06-04T14:05:33.241Z,26.70
2023-06-04T14:08:00.002Z,26.80
2023-06-04T14:10:26.815Z,27.10
2023-06-04T14:12:53.459Z,27.00
2023-06-04T14:15:20.439Z,26.80
2023-06-04T14:17:48.563Z,27.40
2023-06-04T14:20:15.326Z,27.70
2023-06-04T14:22:42.013Z,27.60
2023-06-04T14:25:09.634Z,27.90
2023-06-04T14:27:36.758Z,27.50
2023-06-04T14:30:04.859Z,27.20
2023-06-04T14:32:31.781Z,27.40
2023-06-04T14:34:58.743Z,27.40
2023-06-04T14:37:25.573Z,27.50
2023-06-04T14:39:52.274Z,27.60
2023-06-04T14:42:18.965Z,27.50
2023-06-04T14:44:46.755Z,27.60
2023-06-04T14:47:13.610Z,27.90
2023-06-04T14:49:40.421Z,28.20
2023-06-04T14:52:07.356Z,28.30
2023-06-04T14:54:35.820Z,28.30
2023-06-04T14:57:03.004Z,28.20
2023-06-04T14:59:29.839Z,28.10
2023-06-04T15:01:56.636Z,28.00
2023-06-04T15:04:23.685Z,28.40
2023-06-04T15:06:50.848Z,28.40
2023-06-04T15:09:17.573Z,28.30
2023-06-04T15:11:44.322Z,28.30
2023-06-04T15:14:11.009Z,28.50
2023-06-04T15:16:37.717Z,28.50
2023-06-04T15:19:04.606Z,28.60
2023-06-04T15:21:31.392Z,28.50
2023-06-04T15:23:58.212Z,28.40
2023-06-04T15:26:25.837Z,28.40
2023-06-04T15:28:52.535Z,28.30
2023-06-04T15:31:19.305Z,28.30
2023-06-04T15:33:46.157Z,28.40
2023-06-04T15:36:12.794Z,28.80
2023-06-04T15:38:39.471Z,28.20
2023-06-04T15:41:06.288Z,28.20
2023-06-04T15:43:33.106Z,28.60
2023-06-04T15:45:59.817Z,28.50
2023-06-04T15:48:28.933Z,28.70
2023-06-04T15:50:55.817Z,28.20
2023-06-04T15:53:23.925Z,28.10
2023-06-04T15:55:51.630Z,28.20
2023-06-04T15:58:18.321Z,28.20
2023-06-04T16:00:45.175Z,28.20
2023-06-04T16:03:11.934Z,28.10
2023-06-04T16:05:38.616Z,28.10
2023-06-04T16:08:05.387Z,28.40
2023-06-04T16:10:33.020Z,28.30
2023-06-04T16:13:01.114Z,28.30
2023-06-04T16:15:27.772Z,28.40
2023-06-04T16:17:55.518Z,28.50
2023-06-04T16:20:22.273Z,28.50
2023-06-04T16:22:50.034Z,28.30
2023-06-04T16:25:18.882Z,28.40
2023-06-04T16:27:46.995Z,28.30
2023-06-04T16:30:14.777Z,28.60
2023-06-04T16:32:41.781Z,28.50
2023-06-04T16:35:10.453Z,28.10
2023-06-04T16:37:40.387Z,28.40
2023-06-04T16:40:07.709Z,28.50
2023-06-04T16:42:34.700Z,28.60
2023-06-04T16:45:03.239Z,28.40
2023-06-04T16:47:30.059Z,28.50
2023-06-04T16:49:56.969Z,28.50
2023-06-04T16:52:23.798Z,28.40
2023-06-04T16:54:50.752Z,28.60
2023-06-04T16:57:17.546Z,28.60
2023-06-04T16:59:48.364Z,28.40
2023-06-04T17:02:15.726Z,28.20
2023-06-04T17:04:43.500Z,28.20
2023-06-04T17:07:11.578Z,28.30
2023-06-04T17:09:38.839Z,28.20
2023-06-04T17:12:07.870Z,28.50
2023-06-04T17:14:35.564Z,28.20
2023-06-04T17:17:02.577Z,27.80
2023-06-04T17:19:29.400Z,28.10
2023-06-04T17:21:56.056Z,27.90
2023-06-04T17:24:22.824Z,27.80
2023-06-04T17:26:49.510Z,27.70
2023-06-04T17:29:16.398Z,27.80
2023-06-04T17:31:43.102Z,27.60
2023-06-04T17:34:09.769Z,27.60
2023-06-04T17:36:36.734Z,27.90
2023-06-04T17:39:03.657Z,27.90
2023-06-04T17:41:30.420Z,27.80
2023-06-04T17:43:57.099Z,27.70
2023-06-04T17:46:23.877Z,27.80
2023-06-04T17:48:50.730Z,27.60
2023-06-04T17:51:17.413Z,27.50
2023-06-04T17:53:44.106Z,27.50
2023-06-04T17:56:10.894Z,27.40
2023-06-04T17:58:37.580Z,27.20
2023-06-04T18:01:04.434Z,27.10
2023-06-04T18:03:31.988Z,27.00
2023-06-04T18:05:58.799Z,26.90
2023-06-04T18:08:25.520Z,26.90
2023-06-04T18:10:52.339Z,27.00
2023-06-04T18:13:19.061Z,27.10
2023-06-04T18:15:46.075Z,26.90
2023-06-04T18:18:12.793Z,26.90
2023-06-04T18:20:39.622Z,27.00
2023-06-04T18:23:06.349Z,26.80
2023-06-04T18:25:33.148Z,26.60
2023-06-04T18:27:59.902Z,26.30
2023-06-04T18:30:26.586Z,26.50
2023-06-04T18:32:54.751Z,26.40
2023-06-04T18:35:21.615Z,26.20
2023-06-04T18:37:48.390Z,26.20
2023-06-04T18:40:17.815Z,26.00
2023-06-04T18:42:45.531Z,25.90
2023-06-04T18:45:14.724Z,25.80
2023-06-04T18:47:41.468Z,25.60
2023-06-04T18:50:08.489Z,25.50
2023-06-04T18:52:38.875Z,25.30
2023-06-04T18:55:09.799Z,25.20
2023-06-04T18:57:37.177Z,25.20
2023-06-04T19:00:08.596Z,25.10
2023-06-04T19:02:37.760Z,25.10
2023-06-04T19:05:06.148Z,24.90
2023-06-04T19:07:34.079Z,24.90
2023-06-04T19:10:01.070Z,24.70
2023-06-04T19:12:28.117Z,24.50
2023-06-04T19:14:55.038Z,24.40
2023-06-04T19:17:22.750Z,24.30
2023-06-04T19:19:50.696Z,24.30
2023-06-04T19:22:17.436Z,24.10
2023-06-04T19:24:44.360Z,23.90
2023-06-04T19:27:11.059Z,23.80
2023-06-04T19:29:43.367Z,23.70
2023-06-04T19:32:11.139Z,23.60
2023-06-04T19:34:37.920Z,23.70
2023-06-04T19:37:05.172Z,23.70
2023-06-04T19:39:31.820Z,23.60
2023-06-04T19:41:58.544Z,23.60
2023-06-04T19:44:25.273Z,23.40
2023-06-04T19:46:52.034Z,23.30
2023-06-04T19:49:20.692Z,23.30
2023-06-04T19:51:47.975Z,23.10
2023-06-04T19:54:14.824Z,23.10
2023-06-04T19:56:41.750Z,23.00
2023-06-04T19:59:08.431Z,23.10
2023-06-04T20:01:35.211Z,22.80
2023-06-04T20:04:02.315Z,22.80
2023-06-04T20:06:29.055Z,22.70
2023-06-04T20:08:55.905Z,22.70
2023-06-04T20:11:23.187Z,22.60
2023-06-04T20:13:49.979Z,22.50
2023-06-04T20:16:17.020Z,22.50
2023-06-04T20:18:43.673Z,22.60
2023-06-04T20:21:10.356Z,22.60
2023-06-04T20:23:37.108Z,22.50
2023-06-04T20:26:03.813Z,22.50
2023-06-04T20:28:31.609Z,22.50
2023-06-04T20:30:58.396Z,22.40
2023-06-04T20:33:26.907Z,22.40
2023-06-04T20:35:53.697Z,22.30
2023-06-04T20:38:20.403Z,22.10
2023-06-04T20:40:47.160Z,22.10
2023-06-04T20:43:15.630Z,22.10
2023-06-04T20:45:42.806Z,22.10
2023-06-04T20:48:09.781Z,22.10
2023-06-04T20:50:36.493Z,22.20
2023-06-04T20:53:03.240Z,22.10
2023-06-04T20:55:29.946Z,22.20
2023-06-04T20:57:57.088Z,22.00
2023-06-04T21:00:26.615Z,22.00
2023-06-04T21:02:53.461Z,21.90
2023-06-04T21:05:20.330Z,21.90
2023-06-04T21:07:47.175Z,21.90
2023-06-04T21:10:16.014Z,21.70
2023-06-04T21:12:42.674Z,21.80
2023-06-04T21:15:09.716Z,21.70
2023-06-04T21:17:36.586Z,21.80
2023-06-04T21:20:03.404Z,21.80
2023-06-04T21:22:30.053Z,21.80
2023-06-04T21:24:56.740Z,21.80
2023-06-04T21:27:23.426Z,21.80
2023-06-04T21:29:50.222Z,21.70
2023-06-04T21:32:16.876Z,21.70
2023-06-04T21:34:43.542Z,21.50
2023-06-04T21:37:10.536Z,21.10
2023-06-04T21:39:37.254Z,21.10
2023-06-04T21:42:04.204Z,21.00
2023-06-04T21:44:31.035Z,21.20
2023-06-04T21:46:58.360Z,20.90
2023-06-04T21:49:25.077Z,20.60
2023-06-04T21:51:51.961Z,20.50
2023-06-04T21:54:18.641Z,20.60
2023-06-04T21:56:47.858Z,20.40
2023-06-04T21:59:14.587Z,20.30
2023-06-04T22:01:41.302Z,20.20
2023-06-04T22:04:08.366Z,20.00
2023-06-04T22:06:35.034Z,20.10
2023-06-04T22:09:01.716Z,20.00
2023-06-04T22:11:28.403Z,19.90
2023-06-04T22:13:55.042Z,19.90
2023-06-04T22:16:21.811Z,19.90
2023-06-04T22:18:53.409Z,20.00
2023-06-04T22:21:20.776Z,19.80
2023-06-04T22:23:47.570Z,19.80
2023-06-04T22:26:28.475Z,19.70
2023-06-04T22:29:01.179Z,19.80
2023-06-04T22:31:27.867Z,19.80
2023-06-04T22:33:54.514Z,19.60
2023-06-04T22:36:21.188Z,19.60
2023-06-04T22:38:47.874Z,19.60
2023-06-04T22:41:14.504Z,19.60
2023-06-04T22:43:41.164Z,19.50
2023-06-04T22:46:07.880Z,19.40
2023-06-04T22:48:34.534Z,19.40
2023-06-04T22:51:02.907Z,19.30
2023-06-04T22:53:29.848Z,19.10
2023-06-04T22:55:56.627Z,19.10
2023-06-04T22:58:23.359Z,19.00
2023-06-04T23:00:50.446Z,19.00
2023-06-04T23:03:17.766Z,18.90
2023-06-04T23:05:44.983Z,18.90
2023-06-04T23:08:11.716Z,18.90
2023-06-04T23:10:38.368Z,18.90
2023-06-04T23:13:05.046Z,18.70
2023-06-04T23:15:31.725Z,18.90
2023-06-04T23:17:58.397Z,18.90
2023-06-04T23:20:25.303Z,18.70
2023-06-04T23:22:51.978Z,18.60
2023-06-04T23:25:18.716Z,18.70
2023-06-04T23:27:45.490Z,18.60
2023-06-04T23:30:13.142Z,18.60
2023-06-04T23:32:40.075Z,18.60
2023-06-04T23:35:07.259Z,18.60
2023-06-04T23:37:34.037Z,18.50
2023-06-04T23:40:00.722Z,18.50
2023-06-04T23:42:27.438Z,18.30
2023-06-04T23:44:54.100Z,18.30
2023-06-04T23:47:20.936Z,18.00
2023-06-04T23:49:47.596Z,18.00
2023-06-04T23:52:14.430Z,18.20
2023-06-04T23:54:41.091Z,18.10
2023-06-04T23:57:07.774Z,18.00
2023-06-04T23:59:34.445Z,18.00
